Time;durP1;ratioP1;P1;durP2;ratioP2;P2;SDS_P1;SDS_P2;PMS_P1;PMS_P2;Temp;Humidity;BMP_temperature;BMP_pressure;BME280_temperature;BME280_humidity;BME280_pressure;Samples;Min_cycle;Max_cycle;Signal;HPM_P1;HPM_P2
2022/12/27 00:02:04;;;;;;;2.50;1.00;;;5.90;95.30;;;;;;920250;151;27417;-81
2022/12/27 00:04:30;;;;;;;1.10;1.00;;;5.90;95.50;;;;;;923281;151;27383;-81
2022/12/27 00:06:57;;;;;;;1.30;1.20;;;5.80;95.50;;;;;;911065;153;27350;-80
2022/12/27 00:09:23;;;;;;;1.90;1.17;;;5.80;95.70;;;;;;911366;155;27956;-80
2022/12/27 00:11:50;;;;;;;1.27;1.17;;;5.70;95.80;;;;;;922993;151;27383;-81
2022/12/27 00:14:16;;;;;;;1.77;1.30;;;5.70;96.00;;;;;;923724;151;27371;-80
2022/12/27 00:16:43;;;;;;;2.23;1.70;;;5.70;96.10;;;;;;922142;154;27347;-81
2022/12/27 00:19:10;;;;;;;2.10;1.40;;;5.60;96.10;;;;;;923916;151;27316;-80
2022/12/27 00:21:36;;;;;;;2.23;1.50;;;5.60;96.20;;;;;;921318;154;27402;-80
2022/12/27 00:24:03;;;;;;;2.17;1.50;;;5.60;96.50;;;;;;922040;151;28041;-81
2022/12/27 00:26:29;;;;;;;2.77;1.40;;;5.60;96.60;;;;;;922511;151;27499;-81
2022/12/27 00:28:56;;;;;;;1.43;1.33;;;5.60;96.70;;;;;;923728;154;27323;-81
2022/12/27 00:31:23;;;;;;;1.00;1.00;;;5.60;96.90;;;;;;920987;151;27353;-80
2022/12/27 00:33:49;;;;;;;2.03;1.47;;;5.60;97.00;;;;;;923432;154;27411;-80
2022/12/27 00:36:16;;;;;;;4.20;1.60;;;5.60;97.10;;;;;;923452;151;27416;-81
2022/12/27 00:38:42;;;;;;;2.83;1.90;;;5.60;97.10;;;;;;921848;154;27857;-80
2022/12/27 00:41:09;;;;;;;2.27;1.97;;;5.60;97.20;;;;;;924141;151;27344;-81
2022/12/27 00:43:35;;;;;;;2.07;1.40;;;5.60;97.30;;;;;;910720;153;27367;-81
2022/12/27 00:46:02;;;;;;;2.53;1.40;;;5.60;97.30;;;;;;923464;151;27325;-81
2022/12/27 00:48:29;;;;;;;1.93;1.73;;;5.60;97.30;;;;;;925535;150;27345;-80
2022/12/27 00:50:58;;;;;;;2.37;2.07;;;5.50;97.40;;;;;;921715;154;27385;-80
2022/12/27 00:53:25;;;;;;;3.00;2.23;;;5.50;97.60;;;;;;922102;151;27365;-81
2022/12/27 00:55:51;;;;;;;3.30;1.60;;;5.50;97.60;;;;;;922450;151;27361;-80
2022/12/27 00:58:18;;;;;;;3.10;1.80;;;5.50;97.60;;;;;;920385;154;27345;-81
2022/12/27 01:00:45;;;;;;;2.20;1.90;;;5.50;97.70;;;;;;922489;153;27478;-80
2022/12/27 01:03:11;;;;;;;3.37;1.80;;;5.50;97.80;;;;;;921132;152;27496;-80
2022/12/27 01:05:38;;;;;;;2.60;1.80;;;5.60;97.80;;;;;;919013;152;27354;-81
2022/12/27 01:08:04;;;;;;;3.93;2.10;;;5.60;97.90;;;;;;919298;152;27380;-81
2022/12/27 01:10:31;;;;;;;2.20;1.97;;;5.60;97.90;;;;;;916985;151;27345;-81
2022/12/27 01:12:58;;;;;;;2.27;1.80;;;5.60;98.00;;;;;;918862;152;27412;-81
2022/12/27 01:15:24;;;;;;;2.00;1.80;;;5.50;97.90;;;;;;917618;152;27417;-81
2022/12/27 01:17:51;;;;;;;2.67;1.70;;;5.60;98.00;;;;;;916573;152;27337;-81
2022/12/27 01:20:17;;;;;;;2.60;1.80;;;5.60;98.00;;;;;;905049;153;27322;-81
2022/12/27 01:22:44;;;;;;;6.97;1.93;;;5.60;98.10;;;;;;917401;152;27321;-80
2022/12/27 01:25:10;;;;;;;2.37;2.03;;;5.60;98.10;;;;;;919408;151;27413;-81
2022/12/27 01:27:37;;;;;;;2.33;1.70;;;5.60;98.10;;;;;;920287;150;27362;-81
2022/12/27 01:30:04;;;;;;;2.00;1.70;;;5.60;98.10;;;;;;918893;151;27380;-81
2022/12/27 01:32:30;;;;;;;2.43;1.60;;;5.60;98.10;;;;;;918159;152;27895;-80
2022/12/27 01:34:57;;;;;;;1.53;1.40;;;5.60;98.10;;;;;;918204;151;27350;-81
2022/12/27 01:37:23;;;;;;;4.07;1.63;;;5.60;98.10;;;;;;917220;152;27305;-81
2022/12/27 01:39:50;;;;;;;3.07;1.63;;;5.70;98.10;;;;;;919526;152;27413;-80
2022/12/27 01:45:01;;;;;;;2.40;1.50;;;5.70;98.00;;;;;;920903;151;27438;-81
2022/12/27 01:47:33;;;;;;;1.50;1.40;;;5.60;97.90;;;;;;917308;152;27309;-81
2022/12/27 01:50:06;;;;;;;1.53;1.40;;;5.70;97.90;;;;;;909517;152;27317;-81
2022/12/27 01:52:48;;;;;;;1.63;1.50;;;5.70;97.80;;;;;;919331;152;27728;-80
2022/12/27 01:55:14;;;;;;;4.10;1.40;;;5.70;97.80;;;;;;918879;152;27414;-82
2022/12/27 01:57:41;;;;;;;1.40;1.30;;;5.70;97.80;;;;;;916700;152;27378;-81
2022/12/27 02:00:07;;;;;;;2.33;1.53;;;5.70;97.80;;;;;;907044;153;27456;-81
2022/12/27 02:02:34;;;;;;;1.40;1.30;;;5.70;97.80;;;;;;920552;150;27277;-81
2022/12/27 02:05:01;;;;;;;5.60;1.40;;;5.70;97.80;;;;;;914356;154;27393;-80
2022/12/27 02:07:27;;;;;;;2.27;1.17;;;5.70;97.70;;;;;;912961;156;27947;-81
2022/12/27 02:09:54;;;;;;;1.87;1.20;;;5.80;97.70;;;;;;910573;154;27373;-82
2022/12/27 02:12:20;;;;;;;1.63;1.23;;;5.80;97.70;;;;;;912498;156;27413;-81
2022/12/27 02:14:48;;;;;;;1.73;1.53;;;5.80;97.60;;;;;;915288;154;27341;-80
2022/12/27 02:17:16;;;;;;;2.33;1.30;;;5.80;97.50;;;;;;922168;151;27290;-80
2022/12/27 02:19:52;;;;;;;1.50;1.40;;;5.80;97.40;;;;;;913059;156;27511;-80
2022/12/27 02:22:31;;;;;;;2.00;1.10;;;5.80;97.30;;;;;;913367;156;27474;-81
2022/12/27 02:25:16;;;;;;;2.83;1.17;;;5.80;97.30;;;;;;911281;154;27436;-81
2022/12/27 02:28:06;;;;;;;3.57;1.40;;;5.80;97.30;;;;;;912143;154;27804;-81
2022/12/27 02:30:33;;;;;;;1.23;1.13;;;5.70;97.10;;;;;;914575;156;27332;-83
2022/12/27 02:33:03;;;;;;;0.90;0.90;;;5.70;97.10;;;;;;911679;154;27416;-81
2022/12/27 02:35:38;;;;;;;1.63;1.20;;;5.70;97.00;;;;;;912153;154;27396;-81
2022/12/27 02:38:04;;;;;;;1.63;1.30;;;5.70;97.00;;;;;;914100;154;28623;-81
2022/12/27 02:54:39;;;;;;;2.97;1.07;;;5.50;96.70;;;;;;923650;151;27494;-81
2022/12/27 02:57:11;;;;;;;1.90;1.23;;;5.50;96.80;;;;;;921455;151;27425;-82
2022/12/27 03:05:44;;;;;;;1.07;0.90;;;5.40;96.90;;;;;;923256;151;27426;-81
2022/12/27 03:08:16;;;;;;;1.80;1.13;;;5.30;96.90;;;;;;921583;151;27441;-80
2022/12/27 03:16:27;;;;;;;1.40;1.00;;;5.30;97.30;;;;;;917056;151;27429;-82
2022/12/27 03:19:02;;;;;;;1.40;1.13;;;5.20;97.30;;;;;;921593;154;27332;-81
2022/12/27 03:26:58;;;;;;;2.03;1.10;;;5.20;97.40;;;;;;921906;152;27447;-81
2022/12/27 03:34:54;;;;;;;2.00;1.13;;;5.10;97.50;;;;;;922058;151;27391;-82
2022/12/27 03:40:17;;;;;;;2.43;1.20;;;5.10;97.70;;;;;;922984;151;27353;-82
2022/12/27 03:48:16;;;;;;;2.03;1.10;;;5.00;98.20;;;;;;921966;154;27464;-81
2022/12/27 03:50:46;;;;;;;2.47;1.20;;;5.00;98.20;;;;;;922693;154;27382;-81
2022/12/27 03:53:12;;;;;;;3.30;1.40;;;5.00;98.30;;;;;;921640;151;27488;-81
2022/12/27 03:55:39;;;;;;;2.70;1.17;;;5.10;98.40;;;;;;918089;154;27429;-81
2022/12/27 03:58:06;;;;;;;3.20;1.10;;;5.10;98.60;;;;;;906947;154;27315;-81
2022/12/27 04:00:32;;;;;;;1.83;1.40;;;5.10;98.70;;;;;;914271;156;27397;-80
2022/12/27 04:02:59;;;;;;;1.83;1.10;;;5.10;98.70;;;;;;914812;153;27408;-79
2022/12/27 04:05:25;;;;;;;1.10;1.00;;;5.10;98.80;;;;;;917551;151;27485;-81
2022/12/27 04:35:18;;;;;;;3.23;1.27;;;5.10;99.60;;;;;;922377;150;27518;-81
2022/12/27 04:37:45;;;;;;;3.53;1.47;;;5.10;99.70;;;;;;922322;152;27303;-82
2022/12/27 04:56:39;;;;;;;3.93;1.50;;;5.20;99.70;;;;;;922405;152;27394;-82
2022/12/27 05:02:02;;;;;;;2.67;1.20;;;5.20;99.90;;;;;;920744;152;27427;-82
2022/12/27 05:04:29;;;;;;;1.63;1.20;;;5.20;99.90;;;;;;920074;151;27540;-82
2022/12/27 05:06:56;;;;;;;3.27;1.43;;;5.20;99.90;;;;;;922504;153;27336;-82
2022/12/27 05:14:52;;;;;;;3.40;1.20;;;5.20;99.90;;;;;;923654;151;27451;-81
2022/12/27 05:17:18;;;;;;;2.47;1.60;;;5.20;99.90;;;;;;920269;152;27411;-82
2022/12/27 05:19:45;;;;;;;2.20;1.53;;;5.20;99.90;;;;;;922618;151;27491;-82
2022/12/27 05:27:41;;;;;;;3.03;1.67;;;5.20;99.90;;;;;;922266;151;27453;-81
2022/12/27 05:30:08;;;;;;;2.50;1.23;;;5.20;99.90;;;;;;925223;154;27445;-81
2022/12/27 05:32:34;;;;;;;1.80;1.33;;;5.20;99.90;;;;;;923033;151;27501;-81
2022/12/27 05:35:01;;;;;;;2.77;1.40;;;5.20;99.90;;;;;;923115;151;27489;-81
2022/12/27 05:37:27;;;;;;;2.20;1.73;;;5.20;99.90;;;;;;921774;151;27367;-82
2022/12/27 05:39:54;;;;;;;2.17;1.40;;;5.20;99.90;;;;;;922716;153;27881;-81
2022/12/27 05:42:20;;;;;;;2.73;1.73;;;5.20;99.90;;;;;;923881;151;27392;-81
2022/12/27 05:44:47;;;;;;;5.43;1.40;;;5.20;99.90;;;;;;922747;151;27637;-80
2022/12/27 05:47:14;;;;;;;2.87;1.40;;;5.10;99.90;;;;;;925156;151;27395;-82
2022/12/27 05:49:40;;;;;;;2.33;1.23;;;5.20;99.90;;;;;;922350;151;27394;-81
2022/12/27 05:52:07;;;;;;;1.80;1.30;;;5.10;99.90;;;;;;925052;154;27276;-82
2022/12/27 05:54:33;;;;;;;3.60;1.87;;;5.10;99.90;;;;;;906185;154;27399;-81
2022/12/27 05:57:00;;;;;;;2.63;1.60;;;5.10;99.90;;;;;;913224;154;27485;-82
2022/12/27 05:59:27;;;;;;;1.57;1.23;;;5.10;99.90;;;;;;906107;157;27503;-82
2022/12/27 06:01:53;;;;;;;4.47;1.63;;;5.10;99.90;;;;;;921094;154;27322;-82
2022/12/27 06:04:20;;;;;;;1.60;1.47;;;5.10;99.90;;;;;;912617;154;27432;-81
2022/12/27 06:06:46;;;;;;;2.50;1.60;;;5.00;99.90;;;;;;913092;153;27405;-82
2022/12/27 06:09:13;;;;;;;2.07;1.40;;;5.00;99.90;;;;;;913775;154;27400;-82
2022/12/27 06:11:39;;;;;;;2.97;1.53;;;5.10;99.90;;;;;;913127;156;27519;-82
2022/12/27 06:14:06;;;;;;;4.07;1.40;;;5.10;99.90;;;;;;913431;154;27345;-82
2022/12/27 06:16:33;;;;;;;1.77;1.40;;;5.10;99.90;;;;;;913328;153;27370;-82
2022/12/27 06:18:59;;;;;;;3.10;1.83;;;5.10;99.90;;;;;;913530;155;27439;-82
2022/12/27 06:21:26;;;;;;;2.37;1.57;;;5.10;99.90;;;;;;912840;154;28175;-80
2022/12/27 06:23:52;;;;;;;1.70;1.37;;;5.10;99.90;;;;;;914245;156;27479;-82
2022/12/27 06:26:22;;;;;;;3.27;1.60;;;5.10;99.90;;;;;;912714;154;27344;-82
2022/12/27 06:28:48;;;;;;;2.03;1.60;;;5.10;99.90;;;;;;912197;156;27445;-82
2022/12/27 06:31:15;;;;;;;4.00;1.70;;;5.10;99.90;;;;;;924724;151;27356;-82
2022/12/27 06:33:41;;;;;;;1.40;1.30;;;5.10;99.90;;;;;;909939;153;27386;-80
2022/12/27 06:36:08;;;;;;;3.97;1.90;;;5.10;99.90;;;;;;915449;153;27450;-83
2022/12/27 06:38:35;;;;;;;2.87;1.90;;;5.10;99.90;;;;;;924294;153;27368;-82
2022/12/27 06:41:04;;;;;;;3.47;1.50;;;5.10;99.90;;;;;;913377;154;27349;-82
2022/12/27 06:43:31;;;;;;;2.17;1.83;;;5.00;99.90;;;;;;920848;151;27676;-82
2022/12/27 06:45:57;;;;;;;2.30;1.57;;;5.00;99.90;;;;;;923337;151;27354;-80
2022/12/27 06:48:24;;;;;;;4.20;1.77;;;5.00;99.90;;;;;;922874;154;27481;-82
2022/12/27 06:50:50;;;;;;;3.77;1.60;;;4.90;99.90;;;;;;913734;154;27395;-82
2022/12/27 06:53:17;;;;;;;3.73;1.67;;;4.90;99.90;;;;;;912530;154;27339;-82
2022/12/27 06:55:44;;;;;;;2.60;1.70;;;4.90;99.90;;;;;;913336;153;27450;-82
2022/12/27 06:58:11;;;;;;;2.63;1.47;;;4.90;99.90;;;;;;913742;155;27329;-81
2022/12/27 07:00:37;;;;;;;3.97;1.70;;;4.90;99.90;;;;;;909068;154;27360;-82
2022/12/27 07:03:03;;;;;;;5.20;1.60;;;4.90;99.90;;;;;;915978;155;28559;-82
2022/12/27 07:05:30;;;;;;;2.53;2.00;;;4.90;99.90;;;;;;914114;153;27368;-82
2022/12/27 07:07:57;;;;;;;5.00;1.80;;;4.90;99.90;;;;;;926563;151;27365;-82
2022/12/27 07:10:23;;;;;;;4.73;1.80;;;4.90;99.90;;;;;;924494;151;27493;-81
2022/12/27 07:12:50;;;;;;;3.17;1.67;;;4.90;99.90;;;;;;908470;153;27368;-82
2022/12/27 07:15:16;;;;;;;2.33;1.57;;;4.90;99.90;;;;;;906569;153;27638;-80
2022/12/27 07:17:43;;;;;;;2.23;1.63;;;4.90;99.90;;;;;;918252;152;27316;-81
2022/12/27 07:20:10;;;;;;;1.80;1.70;;;4.90;99.90;;;;;;917674;152;27333;-80
2022/12/27 07:22:36;;;;;;;4.73;1.93;;;4.90;99.90;;;;;;918650;152;27466;-80
2022/12/27 07:25:03;;;;;;;3.37;1.93;;;4.90;99.90;;;;;;916153;151;27328;-80
2022/12/27 07:27:29;;;;;;;2.53;1.67;;;4.90;99.90;;;;;;919396;152;27472;-80
2022/12/27 07:29:56;;;;;;;2.17;1.70;;;5.00;99.90;;;;;;918346;152;27477;-80
2022/12/27 07:32:22;;;;;;;4.57;1.63;;;5.00;99.90;;;;;;915926;152;27378;-80
2022/12/27 07:34:49;;;;;;;2.73;1.90;;;5.00;99.90;;;;;;919021;152;27445;-80
2022/12/27 07:37:16;;;;;;;3.73;1.67;;;5.00;99.90;;;;;;916371;152;27402;-80
2022/12/27 07:39:42;;;;;;;2.30;1.70;;;5.00;99.90;;;;;;918791;152;27408;-80
2022/12/27 07:42:09;;;;;;;3.07;1.70;;;5.00;99.90;;;;;;917215;152;27373;-80
2022/12/27 07:44:35;;;;;;;5.53;1.80;;;5.10;99.90;;;;;;920805;150;27283;-81
2022/12/27 07:47:02;;;;;;;3.93;2.00;;;5.10;99.90;;;;;;918364;151;27917;-81
2022/12/27 07:49:28;;;;;;;4.83;1.80;;;5.10;99.90;;;;;;916832;152;27426;-80
2022/12/27 07:51:55;;;;;;;5.80;2.00;;;5.10;99.90;;;;;;916453;152;27376;-80
2022/12/27 07:54:22;;;;;;;3.50;1.60;;;5.10;99.90;;;;;;918300;152;27417;-80
2022/12/27 07:56:48;;;;;;;2.53;1.80;;;5.20;99.90;;;;;;917672;152;27314;-80
2022/12/27 07:59:15;;;;;;;2.90;1.80;;;5.20;99.90;;;;;;916928;152;27366;-80
2022/12/27 08:04:26;;;;;;;2.80;1.83;;;5.20;99.90;;;;;;916529;152;27849;-80
2022/12/27 08:06:53;;;;;;;3.77;1.73;;;5.30;99.90;;;;;;915526;152;27539;-80
2022/12/27 08:09:19;;;;;;;4.20;2.47;;;5.50;99.90;;;;;;921504;154;27367;-80
2022/12/27 08:11:46;;;;;;;4.50;2.97;;;5.60;99.90;;;;;;914112;156;27670;-80
2022/12/27 08:14:12;;;;;;;43.37;21.60;;;5.80;99.90;;;;;;912818;154;27411;-80
2022/12/27 08:16:39;;;;;;;19.70;13.77;;;6.10;99.90;;;;;;911217;154;27298;-80
2022/12/27 08:19:06;;;;;;;8.80;5.17;;;6.30;99.90;;;;;;913781;154;27332;-80
2022/12/27 08:21:32;;;;;;;6.93;3.27;;;6.40;99.90;;;;;;913658;156;28004;-81
2022/12/27 08:23:59;;;;;;;3.77;2.40;;;6.60;99.90;;;;;;915795;154;27407;-81
2022/12/27 08:26:25;;;;;;;5.13;3.20;;;6.70;99.90;;;;;;913026;154;27391;-81
2022/12/27 08:28:52;;;;;;;4.13;1.93;;;6.70;99.90;;;;;;913360;154;27354;-80
2022/12/27 08:31:19;;;;;;;3.07;2.10;;;6.80;99.90;;;;;;913924;153;27380;-81
2022/12/27 08:33:45;;;;;;;2.77;1.90;;;6.80;99.90;;;;;;912219;153;27414;-81
2022/12/27 08:36:12;;;;;;;6.30;2.50;;;6.80;99.90;;;;;;913903;156;27468;-81
2022/12/27 08:38:38;;;;;;;2.40;2.20;;;6.80;99.90;;;;;;914187;154;27454;-80
2022/12/27 08:41:05;;;;;;;5.67;2.00;;;6.80;99.90;;;;;;913211;156;27404;-80
2022/12/27 08:43:31;;;;;;;2.80;1.83;;;6.90;99.90;;;;;;912613;153;27312;-80
2022/12/27 08:46:01;;;;;;;4.00;2.07;;;6.90;99.90;;;;;;913619;153;27369;-81
2022/12/27 08:48:27;;;;;;;3.53;1.83;;;7.00;99.90;;;;;;913786;154;27293;-81
2022/12/27 08:50:54;;;;;;;3.20;2.00;;;7.10;99.90;;;;;;914953;153;27353;-81
2022/12/27 08:53:20;;;;;;;4.93;2.00;;;7.20;99.90;;;;;;912213;156;27389;-80
2022/12/27 08:55:47;;;;;;;3.70;1.97;;;7.30;99.90;;;;;;914859;153;27446;-80
2022/12/27 08:58:14;;;;;;;2.87;2.00;;;7.40;99.90;;;;;;912408;153;27438;-80
2022/12/27 09:00:40;;;;;;;2.60;1.90;;;7.50;99.90;;;;;;913977;154;27693;-80
2022/12/27 09:03:07;;;;;;;3.03;1.73;;;7.60;99.90;;;;;;913748;153;27386;-80
2022/12/27 09:05:34;;;;;;;3.60;1.90;;;7.70;99.90;;;;;;912993;153;27456;-80
2022/12/27 09:08:00;;;;;;;2.87;1.73;;;7.70;99.90;;;;;;915130;152;27525;-80
2022/12/27 09:10:27;;;;;;;5.63;2.20;;;7.80;99.90;;;;;;917282;152;27387;-80
2022/12/27 09:12:53;;;;;;;4.60;2.40;;;7.80;99.90;;;;;;918479;152;28230;-80
2022/12/27 09:15:20;;;;;;;4.13;1.90;;;7.80;99.90;;;;;;918911;151;27322;-81
2022/12/27 09:17:46;;;;;;;5.03;2.50;;;7.80;99.90;;;;;;906397;153;27385;-81
2022/12/27 09:20:13;;;;;;;5.90;2.47;;;7.80;99.90;;;;;;919347;152;27349;-81
2022/12/27 09:22:40;;;;;;;3.17;2.10;;;7.80;99.90;;;;;;922588;152;27461;-81
2022/12/27 09:25:06;;;;;;;4.83;2.50;;;7.80;99.90;;;;;;920791;152;27412;-80
2022/12/27 09:27:33;;;;;;;5.13;2.93;;;7.90;99.90;;;;;;921041;152;27364;-81
2022/12/27 09:29:59;;;;;;;3.63;2.50;;;7.90;99.90;;;;;;921320;152;27897;-81
2022/12/27 09:32:26;;;;;;;3.57;2.47;;;7.90;99.90;;;;;;920609;152;27352;-80
2022/12/27 09:34:53;;;;;;;4.87;2.50;;;7.90;99.90;;;;;;909265;153;27357;-81
2022/12/27 09:37:19;;;;;;;3.17;2.30;;;7.90;99.90;;;;;;919983;150;27486;-81
2022/12/27 09:39:46;;;;;;;3.83;2.10;;;7.90;99.90;;;;;;920737;152;27412;-82
2022/12/27 09:42:18;;;;;;;4.80;2.50;;;7.90;99.90;;;;;;920758;152;27389;-81
2022/12/27 09:44:47;;;;;;;4.47;2.47;;;8.00;99.90;;;;;;920712;150;27385;-81
2022/12/27 09:47:32;;;;;;;3.43;2.70;;;8.00;99.80;;;;;;922347;150;27387;-81
2022/12/27 09:49:58;;;;;;;4.93;2.50;;;8.10;99.70;;;;;;921517;150;27455;-79
2022/12/27 09:52:33;;;;;;;3.60;3.13;;;8.10;99.80;;;;;;922871;150;27414;-81
2022/12/27 09:55:15;;;;;;;3.93;2.30;;;8.10;99.90;;;;;;920060;152;27976;-80
2022/12/27 09:57:42;;;;;;;3.30;2.30;;;8.10;99.80;;;;;;919082;152;27506;-80
2022/12/27 10:00:20;;;;;;;5.80;3.20;;;8.20;99.80;;;;;;919479;151;27388;-79
2022/12/27 10:02:46;;;;;;;5.00;2.57;;;8.20;99.80;;;;;;919869;152;27360;-80
2022/12/27 10:05:19;;;;;;;7.17;3.37;;;8.20;99.70;;;;;;921855;150;27336;-80
2022/12/27 10:07:45;;;;;;;6.77;4.43;;;8.30;99.80;;;;;;918812;152;27415;-81
2022/12/27 10:10:42;;;;;;;5.47;3.33;;;8.30;99.70;;;;;;919591;151;27547;-80
2022/12/27 10:13:15;;;;;;;6.97;3.50;;;8.40;99.60;;;;;;921211;152;27516;-80
2022/12/27 10:15:45;;;;;;;4.40;2.53;;;8.40;99.60;;;;;;920857;151;27438;-81
2022/12/27 10:18:26;;;;;;;5.27;4.60;;;8.50;99.70;;;;;;920061;150;27376;-80
2022/12/27 10:21:11;;;;;;;4.83;2.70;;;8.50;99.70;;;;;;922693;150;27330;-81
2022/12/27 10:23:37;;;;;;;4.60;3.27;;;8.60;99.70;;;;;;921605;150;27510;-80
2022/12/27 10:26:04;;;;;;;7.63;3.73;;;8.70;99.70;;;;;;921406;152;27492;-80
2022/12/27 10:28:33;;;;;;;5.43;3.03;;;8.80;99.70;;;;;;920100;152;27397;-81
2022/12/27 10:31:00;;;;;;;6.03;2.90;;;8.80;99.60;;;;;;923288;150;27348;-80
2022/12/27 10:33:26;;;;;;;4.23;3.30;;;8.90;99.50;;;;;;922076;152;27326;-80
2022/12/27 10:35:53;;;;;;;5.60;2.80;;;9.00;99.20;;;;;;922584;152;27394;-80
2022/12/27 10:38:20;;;;;;;5.07;2.67;;;9.10;98.80;;;;;;922173;152;27405;-80
2022/12/27 10:40:58;;;;;;;4.97;2.70;;;9.10;98.60;;;;;;919860;152;27341;-82
2022/12/27 10:43:25;;;;;;;4.10;2.50;;;9.20;98.30;;;;;;920592;150;27309;-81
2022/12/27 10:45:52;;;;;;;2.87;2.60;;;9.20;98.00;;;;;;919407;150;27469;-80
2022/12/27 10:48:21;;;;;;;4.73;2.60;;;9.20;97.70;;;;;;920297;152;27381;-79
2022/12/27 10:50:56;;;;;;;3.27;2.83;;;9.30;97.50;;;;;;920293;152;27465;-81
2022/12/27 10:53:38;;;;;;;4.80;2.50;;;9.30;97.40;;;;;;916239;152;27438;-79
2022/12/27 10:56:16;;;;;;;7.03;2.70;;;9.30;97.40;;;;;;920302;150;27315;-80
2022/12/27 10:58:49;;;;;;;4.97;2.67;;;9.40;97.30;;;;;;921417;152;27385;-79
2022/12/27 11:01:21;;;;;;;3.33;3.03;;;9.40;97.10;;;;;;921784;152;27412;-80
2022/12/27 11:03:48;;;;;;;6.17;2.60;;;9.40;97.00;;;;;;920967;150;27404;-81
2022/12/27 11:06:17;;;;;;;3.43;2.47;;;9.40;96.90;;;;;;921882;150;27326;-80
2022/12/27 11:08:44;;;;;;;5.43;2.67;;;9.40;96.70;;;;;;921445;151;27519;-80
2022/12/27 11:11:22;;;;;;;4.30;2.50;;;9.50;96.70;;;;;;924232;151;27355;-79
2022/12/27 11:13:49;;;;;;;4.07;2.50;;;9.50;96.60;;;;;;923593;154;27399;-80
2022/12/27 11:16:24;;;;;;;4.53;2.67;;;9.50;96.80;;;;;;922975;151;27332;-79
2022/12/27 11:18:50;;;;;;;5.23;2.60;;;9.50;96.60;;;;;;923946;151;27369;-80
2022/12/27 11:21:17;;;;;;;3.67;2.53;;;9.60;96.50;;;;;;923080;154;27818;-80
2022/12/27 11:23:44;;;;;;;2.77;2.50;;;9.60;96.50;;;;;;924050;151;27387;-79
2022/12/27 11:26:10;;;;;;;4.07;2.47;;;9.70;96.60;;;;;;922467;151;27842;-79
2022/12/27 11:28:39;;;;;;;6.53;2.63;;;9.70;96.40;;;;;;920449;154;27425;-80
2022/12/27 11:31:15;;;;;;;3.53;2.40;;;9.80;96.40;;;;;;922799;154;27378;-81
2022/12/27 11:33:47;;;;;;;2.47;2.20;;;9.80;96.50;;;;;;922464;154;27998;-80
2022/12/27 11:36:13;;;;;;;5.03;2.37;;;9.90;96.30;;;;;;921428;151;28677;-79
2022/12/27 11:38:40;;;;;;;3.30;2.47;;;9.90;96.20;;;;;;922808;154;27443;-79
2022/12/27 11:41:09;;;;;;;2.20;1.93;;;10.00;95.90;;;;;;919620;154;27326;-80
2022/12/27 11:43:39;;;;;;;2.80;2.27;;;10.00;95.50;;;;;;923268;154;27888;-80
2022/12/27 11:46:05;;;;;;;2.70;2.17;;;10.10;95.40;;;;;;921890;151;27335;-80
2022/12/27 11:48:32;;;;;;;5.07;2.47;;;10.10;95.20;;;;;;923477;151;27348;-80
2022/12/27 11:51:20;;;;;;;4.47;2.43;;;10.10;95.20;;;;;;921814;154;27374;-79
2022/12/27 11:54:01;;;;;;;3.27;2.40;;;10.10;94.80;;;;;;921319;151;27318;-80
2022/12/27 11:56:34;;;;;;;3.93;2.63;;;10.10;94.30;;;;;;922173;151;27399;-80
2022/12/27 11:59:22;;;;;;;4.80;2.60;;;10.10;94.30;;;;;;921063;151;27397;-80
2022/12/27 12:02:16;;;;;;;3.07;2.40;;;10.10;94.40;;;;;;922077;154;27399;-80
2022/12/27 12:04:57;;;;;;;3.00;2.50;;;10.10;94.30;;;;;;921119;151;27355;-80
2022/12/27 12:07:36;;;;;;;2.90;2.13;;;10.20;94.60;;;;;;924814;151;27356;-80
2022/12/27 12:10:24;;;;;;;2.43;2.00;;;10.20;94.70;;;;;;921213;152;27384;-81
2022/12/27 12:12:53;;;;;;;2.80;1.93;;;10.20;94.70;;;;;;922173;152;27356;-80
2022/12/27 12:15:23;;;;;;;5.77;2.20;;;10.30;94.90;;;;;;919918;151;27395;-80
2022/12/27 12:17:49;;;;;;;3.13;2.27;;;10.30;94.80;;;;;;922103;152;28424;-81
2022/12/27 12:20:24;;;;;;;3.40;2.43;;;10.40;94.80;;;;;;905360;152;27328;-81
2022/12/27 12:23:06;;;;;;;5.57;2.07;;;10.50;94.40;;;;;;920701;152;27392;-80
2022/12/27 12:25:48;;;;;;;4.97;2.37;;;10.60;93.90;;;;;;919443;150;27358;-79
2022/12/27 12:28:36;;;;;;;3.23;1.90;;;10.60;93.30;;;;;;920518;152;27391;-80
2022/12/27 12:31:15;;;;;;;5.23;2.33;;;10.60;92.50;;;;;;920326;152;27420;-80
2022/12/27 12:33:50;;;;;;;5.77;2.20;;;10.60;92.70;;;;;;918773;152;27480;-81
2022/12/27 12:36:26;;;;;;;4.03;2.50;;;10.50;92.70;;;;;;921548;151;27466;-80
2022/12/27 12:38:58;;;;;;;4.60;2.33;;;10.50;92.60;;;;;;923165;150;27527;-79
2022/12/27 12:41:25;;;;;;;4.00;2.17;;;10.50;92.60;;;;;;921434;151;27412;-80
2022/12/27 12:44:02;;;;;;;3.73;2.57;;;10.50;92.90;;;;;;922763;150;27419;-80
2022/12/27 12:46:45;;;;;;;3.57;2.77;;;10.50;92.60;;;;;;921014;150;27352;-81
2022/12/27 12:49:48;;;;;;;7.27;3.37;;;10.50;92.50;;;;;;906283;154;27520;-81
2022/12/27 12:52:23;;;;;;;6.37;3.87;;;10.50;92.40;;;;;;904979;154;27476;-81
2022/12/27 12:55:14;;;;;;;7.10;3.10;;;10.60;92.50;;;;;;914240;150;27431;-80
2022/12/27 12:58:02;;;;;;;3.63;2.30;;;10.60;92.60;;;;;;920694;152;27534;-80
2022/12/27 13:00:49;;;;;;;8.27;4.10;;;10.60;92.30;;;;;;905531;154;27449;-80
2022/12/27 13:03:40;;;;;;;11.83;5.13;;;10.60;92.30;;;;;;917055;152;27535;-81
2022/12/27 13:06:44;;;;;;;7.93;3.77;;;10.60;92.10;;;;;;919261;152;27430;-81
2022/12/27 13:09:38;;;;;;;13.03;6.20;;;10.60;91.60;;;;;;922435;151;27455;-80
2022/12/27 13:12:05;;;;;;;18.03;7.20;;;10.60;91.60;;;;;;920565;151;27511;-80
2022/12/27 13:14:31;;;;;;;16.67;6.70;;;10.50;91.60;;;;;;918937;151;27367;-79
2022/12/27 13:16:58;;;;;;;12.60;5.43;;;10.50;91.80;;;;;;925079;151;27331;-80
2022/12/27 13:19:46;;;;;;;23.40;7.77;;;10.40;91.60;;;;;;912406;151;27365;-80
2022/12/27 13:22:37;;;;;;;10.97;4.77;;;10.40;91.60;;;;;;920214;151;27392;-80
2022/12/27 13:25:22;;;;;;;23.03;8.10;;;10.40;91.50;;;;;;924374;151;27437;-80
2022/12/27 13:28:01;;;;;;;10.70;4.63;;;10.40;91.20;;;;;;921318;154;27412;-79
2022/12/27 13:30:27;;;;;;;13.80;5.57;;;10.30;91.50;;;;;;918821;151;27396;-81
2022/12/27 13:33:13;;;;;;;10.53;4.63;;;10.30;91.30;;;;;;911817;151;27413;-79
2022/12/27 13:36:01;;;;;;;16.53;6.10;;;10.30;91.40;;;;;;923512;151;27972;-80
2022/12/27 13:38:48;;;;;;;13.70;5.90;;;10.30;91.40;;;;;;922619;151;27866;-79
2022/12/27 13:41:34;;;;;;;21.43;8.40;;;10.20;91.40;;;;;;923211;151;27480;-79
2022/12/27 13:44:13;;;;;;;16.70;8.63;;;10.20;91.30;;;;;;921029;151;27950;-81
2022/12/27 13:46:45;;;;;;;6.70;4.30;;;10.10;91.30;;;;;;921075;154;27365;-80
2022/12/27 13:49:27;;;;;;;5.40;3.70;;;10.10;91.30;;;;;;921552;154;27370;-80
2022/12/27 13:51:53;;;;;;;6.03;4.50;;;10.10;91.40;;;;;;921777;154;27384;-81
2022/12/27 13:54:26;;;;;;;10.77;4.87;;;10.00;91.50;;;;;;922117;151;27438;-80
2022/12/27 13:57:04;;;;;;;6.30;3.27;;;10.00;91.70;;;;;;924996;154;27375;-81
2022/12/27 13:59:49;;;;;;;6.57;4.00;;;10.00;91.80;;;;;;923326;151;27319;-81
2022/12/27 14:02:37;;;;;;;7.93;3.53;;;10.00;91.80;;;;;;921184;154;27377;-81
2022/12/27 14:05:22;;;;;;;4.87;3.40;;;10.00;91.70;;;;;;922135;151;27285;-81
2022/12/27 14:08:07;;;;;;;5.47;2.70;;;10.00;91.60;;;;;;920700;154;27368;-80
2022/12/27 14:10:37;;;;;;;7.20;3.17;;;10.00;91.50;;;;;;922605;151;27348;-82
2022/12/27 14:13:06;;;;;;;4.20;3.30;;;9.90;91.30;;;;;;920910;152;27899;-81
2022/12/27 14:15:42;;;;;;;4.60;2.90;;;9.90;91.30;;;;;;920987;152;28574;-81
2022/12/27 14:18:17;;;;;;;3.03;2.37;;;9.80;91.10;;;;;;922495;152;27390;-82
2022/12/27 14:20:56;;;;;;;3.57;2.80;;;9.70;90.90;;;;;;919414;151;27343;-79
2022/12/27 14:23:37;;;;;;;7.20;4.90;;;9.70;90.90;;;;;;921079;152;27387;-80
2022/12/27 14:26:24;;;;;;;6.87;4.50;;;9.60;91.00;;;;;;923065;150;27378;-81
2022/12/27 14:29:06;;;;;;;7.07;4.03;;;9.60;91.10;;;;;;920229;150;27284;-80
2022/12/27 14:31:51;;;;;;;8.87;4.63;;;9.50;91.20;;;;;;923043;150;27333;-81
2022/12/27 14:34:36;;;;;;;21.00;6.87;;;9.40;91.30;;;;;;921059;150;27467;-81
2022/12/27 14:37:14;;;;;;;17.73;7.57;;;9.40;91.40;;;;;;896548;157;27498;-80
2022/12/27 14:39:59;;;;;;;24.07;7.57;;;9.30;91.60;;;;;;894949;157;27523;-80
2022/12/27 14:42:44;;;;;;;22.97;7.80;;;9.30;91.50;;;;;;909259;152;27419;-80
2022/12/27 14:45:35;;;;;;;29.83;8.23;;;9.20;91.60;;;;;;923646;150;27383;-80
2022/12/27 14:48:01;;;;;;;13.10;4.73;;;9.20;91.60;;;;;;920197;152;27324;-80
2022/12/27 14:50:28;;;;;;;6.70;3.33;;;9.10;91.60;;;;;;919314;152;27284;-81
2022/12/27 14:53:13;;;;;;;9.60;3.40;;;9.10;91.70;;;;;;922182;152;27432;-80
2022/12/27 14:55:42;;;;;;;15.13;5.50;;;9.00;91.70;;;;;;921011;150;27901;-81
2022/12/27 14:58:29;;;;;;;6.00;3.00;;;9.00;91.70;;;;;;920869;152;27872;-81
2022/12/27 15:01:20;;;;;;;14.60;4.40;;;8.90;91.80;;;;;;920337;150;27737;-80
2022/12/27 15:04:05;;;;;;;8.50;3.17;;;8.90;91.80;;;;;;921688;152;27328;-80